SARL/AOL METAR and TAF weather

Enter ICAO airport designator
Station Type Date Time Source
SARL METAR 2018/12/10 13:00 UTC NOAA

SARL 101300Z 36010KT CAVOK 31/18 Q1016


Station Type Date Time Source
SARL Decoded METAR 2018/12/10 13:00 UTC NOAA

Paso De Los Libres Aerodrome, Argentina (SARL) 29-41S 057-09W 70M
Dec 10, 2018 - 08:00 AM EST / 2018.12.10 1300 UTC
Wind: from the N (360 degrees) at 12 MPH (10 KT):0
Visibility: greater than 7 mile(s):0
Temperature: 87 F (31 C)
Dew Point: 64 F (18 C)
Relative Humidity: 45%
Pressure (altimeter): 30.00 in. Hg (1016 hPa)
ob: SARL 101300Z 36010KT CAVOK 31/18 Q1016
cycle: 13

Station Type Date Time Source
SARL TAF UTC NOAA

Error!


Example: see airport list